createdAt,value
2018-05-31T00:00:50.701Z,10.60
2018-05-31T00:01:50.729Z,11.10
2018-05-31T00:02:50.741Z,10.70
2018-05-31T00:03:50.779Z,10.60
2018-05-31T00:04:50.792Z,10.70
2018-05-31T00:05:50.818Z,10.40
2018-05-31T00:06:50.844Z,10.40
2018-05-31T00:07:50.870Z,10.70
2018-05-31T00:08:50.887Z,10.30
2018-05-31T00:09:50.910Z,9.70
2018-05-31T00:10:50.937Z,10.30
2018-05-31T00:11:50.964Z,9.60
2018-05-31T00:12:50.988Z,9.60
2018-05-31T00:13:51.013Z,9.40
2018-05-31T00:14:51.040Z,9.40
2018-05-31T00:15:51.053Z,9.40
2018-05-31T00:16:51.081Z,9.30
2018-05-31T00:17:51.105Z,9.30
2018-05-31T00:18:51.130Z,9.80
2018-05-31T00:19:51.170Z,9.10
2018-05-31T00:20:51.184Z,10.10
2018-05-31T00:21:51.209Z,9.30
2018-05-31T00:22:51.222Z,9.20
2018-05-31T00:23:51.249Z,8.70
2018-05-31T00:24:51.286Z,8.50
2018-05-31T00:25:51.301Z,8.80
2018-05-31T00:26:51.328Z,9.00
2018-05-31T00:27:51.352Z,9.00
2018-05-31T00:28:51.366Z,8.90
2018-05-31T00:29:51.391Z,9.00
2018-05-31T00:30:51.417Z,8.90
2018-05-31T00:31:51.442Z,9.00
2018-05-31T00:32:51.469Z,8.60
2018-05-31T00:33:51.494Z,8.50
2018-05-31T00:34:51.520Z,8.40
2018-05-31T00:35:51.533Z,8.90
2018-05-31T00:36:51.560Z,8.90
2018-05-31T00:37:51.585Z,9.00
2018-05-31T00:38:51.612Z,8.70
2018-05-31T00:39:51.641Z,8.60
2018-05-31T00:40:51.663Z,8.30
2018-05-31T00:41:51.676Z,9.10
2018-05-31T00:42:51.703Z,8.50
2018-05-31T00:43:51.729Z,8.30
2018-05-31T00:44:51.755Z,8.30
2018-05-31T00:45:51.783Z,8.50
2018-05-31T00:46:51.807Z,8.70
2018-05-31T00:47:51.820Z,8.10
2018-05-31T00:48:51.846Z,8.20
2018-05-31T00:49:51.872Z,8.70
2018-05-31T00:50:51.899Z,8.30
2018-05-31T00:51:51.924Z,7.90
2018-05-31T00:52:51.949Z,8.50
2018-05-31T00:53:51.964Z,8.20
2018-05-31T00:54:52.002Z,8.60
2018-05-31T00:55:52.015Z,8.40
2018-05-31T00:56:52.051Z,8.50
2018-05-31T00:57:52.067Z,8.60
2018-05-31T00:58:52.092Z,8.70
2018-05-31T00:59:52.107Z,8.60
2018-05-31T01:00:52.133Z,8.40
2018-05-31T01:01:52.161Z,8.90
2018-05-31T01:02:52.184Z,8.20
2018-05-31T01:03:52.210Z,8.00
2018-05-31T01:04:52.240Z,8.60
2018-05-31T01:05:52.249Z,8.30
2018-05-31T01:06:52.276Z,8.20
2018-05-31T01:07:52.302Z,8.40
2018-05-31T01:08:52.327Z,8.50
2018-05-31T01:09:52.352Z,8.00
2018-05-31T01:10:52.379Z,7.90
2018-05-31T01:11:52.400Z,8.50
2018-05-31T01:12:52.419Z,7.90
2018-05-31T01:13:52.445Z,8.20
2018-05-31T01:14:52.470Z,7.90
2018-05-31T01:15:52.496Z,8.20
2018-05-31T01:16:52.522Z,8.60
2018-05-31T01:17:52.535Z,8.50
2018-05-31T01:18:52.561Z,8.80
2018-05-31T01:19:52.599Z,7.80
2018-05-31T01:20:52.613Z,8.40
2018-05-31T01:21:52.642Z,8.20
2018-05-31T01:22:52.664Z,8.10
2018-05-31T01:23:52.679Z,8.20
2018-05-31T01:24:52.705Z,8.10
2018-05-31T01:25:52.730Z,8.10
2018-05-31T01:26:52.756Z,7.90
2018-05-31T01:27:52.783Z,8.10
2018-05-31T01:28:52.795Z,8.30
2018-05-31T01:29:52.821Z,8.50
2018-05-31T01:30:52.848Z,7.90
2018-05-31T01:31:52.872Z,7.90
2018-05-31T01:32:52.899Z,8.50
2018-05-31T01:33:52.924Z,8.30
2018-05-31T01:34:52.940Z,8.20
2018-05-31T01:35:52.965Z,8.30
2018-05-31T01:36:52.991Z,8.30
2018-05-31T01:37:53.017Z,8.50
2018-05-31T01:38:53.043Z,8.30
2018-05-31T01:39:53.055Z,8.30
2018-05-31T01:40:53.080Z,8.40
2018-05-31T01:41:53.107Z,8.20
2018-05-31T01:42:53.134Z,8.60
2018-05-31T01:43:53.159Z,8.30
2018-05-31T01:44:53.185Z,8.80
2018-05-31T01:45:53.198Z,8.10
2018-05-31T01:46:53.225Z,8.50
2018-05-31T01:47:53.251Z,8.30
2018-05-31T01:48:53.277Z,8.50
2018-05-31T01:49:53.303Z,8.70
2018-05-31T01:50:53.315Z,8.30
2018-05-31T01:51:53.342Z,9.00
2018-05-31T01:52:53.369Z,8.50
2018-05-31T01:53:53.392Z,8.10
2018-05-31T01:54:53.420Z,8.10
2018-05-31T01:55:53.433Z,7.80
2018-05-31T01:56:53.458Z,8.40
2018-05-31T01:57:53.485Z,8.20
2018-05-31T01:58:53.510Z,8.30
2018-05-31T01:59:53.539Z,9.00
2018-05-31T02:00:53.562Z,9.20
2018-05-31T02:01:53.576Z,8.60
2018-05-31T02:02:53.601Z,8.00
2018-05-31T02:03:53.628Z,8.40
2018-05-31T02:04:53.653Z,8.40
2018-05-31T02:05:53.680Z,8.10
2018-05-31T02:06:53.705Z,8.80
2018-05-31T02:07:53.720Z,8.50
2018-05-31T02:08:53.745Z,8.80
2018-05-31T02:09:53.772Z,8.80
2018-05-31T02:10:53.797Z,8.80
2018-05-31T02:11:53.824Z,8.20
2018-05-31T02:12:53.836Z,8.40
2018-05-31T02:13:53.875Z,9.00
2018-05-31T02:14:53.889Z,8.40
2018-05-31T02:15:53.913Z,8.40
2018-05-31T02:16:53.939Z,8.70
2018-05-31T02:17:53.955Z,8.30
2018-05-31T02:18:53.979Z,8.30
2018-05-31T02:19:54.006Z,8.40
2018-05-31T02:20:54.032Z,9.00
2018-05-31T02:21:54.061Z,9.10
2018-05-31T02:22:54.086Z,8.80
2018-05-31T02:23:54.098Z,9.00
2018-05-31T02:24:54.122Z,9.00
2018-05-31T02:25:54.148Z,8.70
2018-05-31T02:26:54.174Z,9.10
2018-05-31T02:27:54.200Z,10.20
2018-05-31T02:28:54.225Z,9.10
2018-05-31T02:29:54.239Z,9.00
2018-05-31T02:30:54.265Z,9.40
2018-05-31T02:31:54.292Z,8.80
2018-05-31T02:32:54.318Z,9.10
2018-05-31T02:33:54.331Z,9.40
2018-05-31T02:34:54.360Z,8.80
2018-05-31T02:35:54.382Z,9.40
2018-05-31T02:36:54.409Z,9.40
2018-05-31T02:37:54.434Z,9.30
2018-05-31T02:38:54.460Z,9.00
2018-05-31T02:39:54.474Z,9.30
2018-05-31T02:40:54.500Z,9.70
2018-05-31T02:41:54.525Z,9.50
2018-05-31T02:42:54.551Z,9.50
2018-05-31T02:43:54.580Z,10.10
2018-05-31T02:44:54.590Z,9.10
2018-05-31T02:45:54.615Z,10.10
2018-05-31T02:46:54.643Z,10.00
2018-05-31T02:47:54.669Z,9.50
2018-05-31T02:48:54.693Z,9.90
2018-05-31T02:49:54.709Z,9.80
2018-05-31T02:50:54.735Z,9.70
2018-05-31T02:51:54.759Z,10.00
2018-05-31T02:52:54.785Z,9.20
2018-05-31T02:53:54.811Z,10.10
2018-05-31T02:54:54.827Z,9.50
2018-05-31T02:55:54.850Z,10.20
2018-05-31T02:56:54.876Z,10.60
2018-05-31T02:57:54.902Z,10.20
2018-05-31T02:58:54.941Z,10.10
2018-05-31T02:59:54.941Z,10.10
2018-05-31T03:00:54.969Z,9.90
2018-05-31T03:01:54.993Z,9.80
2018-05-31T03:02:55.020Z,9.90
2018-05-31T03:03:55.046Z,9.60
2018-05-31T03:04:55.058Z,9.90
2018-05-31T03:05:55.097Z,9.80
2018-05-31T03:06:55.110Z,9.80
2018-05-31T03:07:55.137Z,9.70
2018-05-31T03:08:55.162Z,10.00
2018-05-31T03:09:55.177Z,10.60
2018-05-31T03:10:55.202Z,10.10
2018-05-31T03:11:55.228Z,9.70
2018-05-31T03:12:55.253Z,10.10
2018-05-31T03:13:55.280Z,9.60
2018-05-31T03:14:55.293Z,10.00
2018-05-31T03:15:55.320Z,9.90
2018-05-31T03:16:55.344Z,9.70
2018-05-31T03:17:55.371Z,10.30
2018-05-31T03:18:55.397Z,10.20
2018-05-31T03:19:55.418Z,10.20
2018-05-31T03:20:55.438Z,10.60
2018-05-31T03:21:55.462Z,9.30
2018-05-31T03:22:55.489Z,10.20
2018-05-31T03:23:55.502Z,10.80
2018-05-31T03:24:55.532Z,10.30
2018-05-31T03:25:55.553Z,10.20
2018-05-31T03:26:55.579Z,9.70
2018-05-31T03:27:55.617Z,10.50
2018-05-31T03:28:55.620Z,10.40
2018-05-31T03:29:55.648Z,10.70
2018-05-31T03:30:55.674Z,10.10
2018-05-31T03:31:55.697Z,10.00
2018-05-31T03:32:55.723Z,10.00
2018-05-31T03:33:55.737Z,10.60
2018-05-31T03:34:55.774Z,10.50
2018-05-31T03:35:55.789Z,10.30
2018-05-31T03:36:55.813Z,10.80
2018-05-31T03:37:55.839Z,10.20
2018-05-31T03:38:55.865Z,10.80
2018-05-31T03:39:55.882Z,10.10
2018-05-31T03:40:55.905Z,11.20
2018-05-31T03:41:55.932Z,10.30
2018-05-31T03:42:55.957Z,11.10
2018-05-31T03:43:55.970Z,9.90
2018-05-31T03:44:55.996Z,11.00
2018-05-31T03:45:56.023Z,10.00
2018-05-31T03:46:56.047Z,10.00
2018-05-31T03:47:56.073Z,10.70
2018-05-31T03:48:56.092Z,10.60
2018-05-31T03:49:56.113Z,10.00
2018-05-31T03:50:56.139Z,9.90
2018-05-31T03:51:56.165Z,10.70
2018-05-31T03:52:56.191Z,10.40
2018-05-31T03:53:56.205Z,11.00
2018-05-31T03:54:56.231Z,10.70
2018-05-31T03:55:56.257Z,10.40
2018-05-31T03:56:56.294Z,10.20
2018-05-31T03:57:56.307Z,10.10
2018-05-31T03:58:56.333Z,9.90
2018-05-31T03:59:56.348Z,10.50
2018-05-31T04:00:56.374Z,10.50
2018-05-31T04:01:56.399Z,10.60
2018-05-31T04:02:56.426Z,10.00
2018-05-31T04:03:56.465Z,10.30
2018-05-31T04:04:56.464Z,10.60
2018-05-31T04:05:56.490Z,10.30
2018-05-31T04:06:56.520Z,10.90
2018-05-31T04:07:56.544Z,10.90
2018-05-31T04:08:56.568Z,10.10
2018-05-31T04:09:56.594Z,10.80
2018-05-31T04:10:56.608Z,10.80
2018-05-31T04:11:56.634Z,10.20
2018-05-31T04:12:56.681Z,11.00
2018-05-31T04:13:56.687Z,10.20
2018-05-31T04:14:56.714Z,11.20
2018-05-31T04:15:56.725Z,10.50
2018-05-31T04:16:56.751Z,10.40
2018-05-31T04:17:56.776Z,11.30
2018-05-31T04:18:56.802Z,10.80
2018-05-31T04:19:56.829Z,11.50
2018-05-31T04:20:56.841Z,10.60
2018-05-31T04:21:56.871Z,11.00
2018-05-31T04:22:56.894Z,10.70
2018-05-31T04:23:56.920Z,10.30
2018-05-31T04:24:56.946Z,10.80
2018-05-31T04:25:56.971Z,10.10
2018-05-31T04:26:56.985Z,11.00
2018-05-31T04:27:57.010Z,10.60
2018-05-31T04:28:57.037Z,10.80
2018-05-31T04:29:57.075Z,10.20
2018-05-31T04:30:57.088Z,10.20
2018-05-31T04:31:57.114Z,10.20
2018-05-31T04:32:57.128Z,10.20
2018-05-31T04:33:57.158Z,10.30
2018-05-31T04:34:57.179Z,10.10
2018-05-31T04:35:57.206Z,10.40
2018-05-31T04:36:57.232Z,10.40
2018-05-31T04:37:57.257Z,11.00
2018-05-31T04:38:57.274Z,10.30
2018-05-31T04:39:57.297Z,9.50
2018-05-31T04:40:57.322Z,11.00
2018-05-31T04:41:57.361Z,10.70
2018-05-31T04:42:57.374Z,10.50
2018-05-31T04:43:57.401Z,10.30
2018-05-31T04:44:57.427Z,10.80
2018-05-31T04:45:57.442Z,9.90
2018-05-31T04:46:57.467Z,10.90
2018-05-31T04:47:57.493Z,10.70
2018-05-31T04:48:57.518Z,11.00
2018-05-31T04:49:57.546Z,10.70
2018-05-31T04:50:57.570Z,10.90
2018-05-31T04:51:57.583Z,10.00
2018-05-31T04:52:57.609Z,9.80
2018-05-31T04:53:57.634Z,11.00
2018-05-31T04:54:57.661Z,9.60
2018-05-31T04:55:57.687Z,11.10
2018-05-31T04:56:57.711Z,10.40
2018-05-31T04:57:57.739Z,9.30
2018-05-31T04:58:57.763Z,10.20
2018-05-31T04:59:57.778Z,10.80
2018-05-31T05:00:57.803Z,10.70
2018-05-31T05:01:57.829Z,10.00
2018-05-31T05:02:57.867Z,9.90
2018-05-31T05:03:57.881Z,10.70
2018-05-31T05:04:57.907Z,10.20
2018-05-31T05:05:57.933Z,10.70
2018-05-31T05:06:57.960Z,10.60
2018-05-31T05:07:57.973Z,10.50
2018-05-31T05:08:57.998Z,10.60
2018-05-31T05:09:58.023Z,11.00
2018-05-31T05:10:58.049Z,11.20
2018-05-31T05:11:58.075Z,10.80
2018-05-31T05:12:58.124Z,10.70
2018-05-31T05:13:58.128Z,10.70
2018-05-31T05:14:58.155Z,10.80
2018-05-31T05:15:58.178Z,10.50
2018-05-31T05:16:58.206Z,10.30
2018-05-31T05:17:58.223Z,10.90
2018-05-31T05:18:58.247Z,9.80
2018-05-31T05:19:58.271Z,10.40
2018-05-31T05:20:58.297Z,9.90
2018-05-31T05:21:58.324Z,10.00
2018-05-31T05:22:58.349Z,9.60
2018-05-31T05:23:58.378Z,9.40
2018-05-31T05:24:58.401Z,10.40
2018-05-31T05:25:58.426Z,9.60
2018-05-31T05:26:58.452Z,9.40
2018-05-31T05:27:58.478Z,10.00
2018-05-31T05:28:58.493Z,9.60
2018-05-31T05:29:58.518Z,9.00
2018-05-31T05:30:58.545Z,9.90
2018-05-31T05:31:58.570Z,9.20
2018-05-31T05:32:58.594Z,9.10
2018-05-31T05:33:58.622Z,9.20
2018-05-31T05:34:58.646Z,9.50
2018-05-31T05:35:58.672Z,8.90
2018-05-31T05:36:58.698Z,9.20
2018-05-31T05:37:58.725Z,9.00
2018-05-31T05:38:58.750Z,8.80
2018-05-31T05:39:58.776Z,9.60
2018-05-31T05:40:58.815Z,8.70
2018-05-31T05:41:58.829Z,9.10
2018-05-31T05:42:58.854Z,9.50
2018-05-31T05:43:58.880Z,9.90
2018-05-31T05:44:58.908Z,9.10
2018-05-31T05:45:58.932Z,8.80
2018-05-31T05:46:59.003Z,9.60
2018-05-31T05:47:58.983Z,9.90
2018-05-31T05:48:59.026Z,10.20
2018-05-31T05:49:59.037Z,9.00
2018-05-31T05:50:59.064Z,9.30
2018-05-31T05:51:59.087Z,9.30
2018-05-31T05:52:59.113Z,9.30
2018-05-31T05:53:59.139Z,9.40
2018-05-31T05:54:59.165Z,8.70
2018-05-31T05:55:59.204Z,9.40
2018-05-31T05:56:59.217Z,9.20
2018-05-31T05:57:59.243Z,9.20
2018-05-31T05:58:59.270Z,9.40
2018-05-31T05:59:59.295Z,9.30
2018-05-31T06:00:59.321Z,9.00
2018-05-31T06:01:59.359Z,9.20
2018-05-31T06:02:59.373Z,9.00
2018-05-31T06:03:59.399Z,9.30
2018-05-31T06:04:59.425Z,9.30
2018-05-31T06:05:59.452Z,10.00
2018-05-31T06:06:59.489Z,9.30
2018-05-31T06:07:59.503Z,8.90
2018-05-31T06:08:59.542Z,9.50
2018-05-31T06:09:59.601Z,9.60
2018-05-31T06:10:59.600Z,9.40
2018-05-31T06:11:59.623Z,8.90
2018-05-31T06:12:59.645Z,8.20
2018-05-31T06:13:59.670Z,9.10
2018-05-31T06:14:59.697Z,8.70
2018-05-31T06:15:59.724Z,8.40
2018-05-31T06:16:59.753Z,7.70
2018-05-31T06:17:59.775Z,8.30
2018-05-31T06:18:59.801Z,8.60
2018-05-31T06:19:59.834Z,8.10
2018-05-31T06:20:59.853Z,8.40
2018-05-31T06:21:59.930Z,8.50
2018-05-31T06:22:59.916Z,7.90
2018-05-31T06:23:59.943Z,8.30
2018-05-31T06:24:59.981Z,7.30
2018-05-31T06:25:59.995Z,8.80
2018-05-31T06:27:00.020Z,8.00
2018-05-31T06:28:00.047Z,7.90
2018-05-31T06:29:00.084Z,8.20
2018-05-31T06:30:00.111Z,9.00
2018-05-31T06:31:00.137Z,8.20
2018-05-31T06:32:00.164Z,7.70
2018-05-31T06:33:00.201Z,7.70
2018-05-31T06:34:00.227Z,8.00
2018-05-31T06:35:00.254Z,7.80
2018-05-31T06:36:00.279Z,8.00
2018-05-31T06:37:00.318Z,8.20
2018-05-31T06:38:00.343Z,8.00
2018-05-31T06:39:00.370Z,8.30
2018-05-31T06:40:00.399Z,7.60
2018-05-31T06:41:00.434Z,7.30
2018-05-31T06:42:00.461Z,7.40
2018-05-31T06:43:00.552Z,6.50
2018-05-31T06:44:00.530Z,7.40
2018-05-31T06:45:00.549Z,7.50
2018-05-31T06:46:00.588Z,7.50
2018-05-31T06:47:00.627Z,6.90
2018-05-31T06:48:00.653Z,7.10
2018-05-31T06:49:00.679Z,6.30
2018-05-31T06:50:00.716Z,7.00
2018-05-31T06:51:00.742Z,7.10
2018-05-31T06:52:00.781Z,7.20
2018-05-31T06:53:00.807Z,7.40
2018-05-31T06:54:00.859Z,8.30
2018-05-31T06:55:00.871Z,7.00
2018-05-31T06:56:00.909Z,6.60
2018-05-31T06:57:00.947Z,6.50
2018-05-31T06:58:00.975Z,6.30
2018-05-31T06:59:01.016Z,7.30
2018-05-31T07:00:01.043Z,6.30
2018-05-31T07:01:01.075Z,7.00
2018-05-31T07:02:01.115Z,7.50
2018-05-31T07:03:01.141Z,6.60
2018-05-31T07:04:01.181Z,6.70
2018-05-31T07:05:01.218Z,6.50
2018-05-31T07:06:01.245Z,6.80
2018-05-31T07:07:01.282Z,6.30
2018-05-31T07:08:01.320Z,6.10
2018-05-31T07:09:01.347Z,6.10
2018-05-31T07:10:01.386Z,5.80
2018-05-31T07:11:01.425Z,6.50
2018-05-31T07:12:01.463Z,6.30
2018-05-31T07:13:01.486Z,6.60
2018-05-31T07:14:01.527Z,6.50
2018-05-31T07:15:01.564Z,6.10
2018-05-31T07:16:01.603Z,6.60
2018-05-31T07:17:01.641Z,6.00
2018-05-31T07:18:01.670Z,6.70
2018-05-31T07:19:01.707Z,6.50
2018-05-31T07:20:01.761Z,6.30
2018-05-31T07:21:01.784Z,6.10
2018-05-31T07:22:01.821Z,6.20
2018-05-31T07:23:01.848Z,6.30
2018-05-31T07:24:01.897Z,6.30
2018-05-31T07:25:01.936Z,6.70
2018-05-31T07:26:01.963Z,6.20
2018-05-31T07:27:02.002Z,6.20
2018-05-31T07:28:02.040Z,6.10
2018-05-31T07:29:02.094Z,7.10
2018-05-31T07:30:02.121Z,7.50
2018-05-31T07:31:02.183Z,6.80
2018-05-31T07:32:02.180Z,6.80
2018-05-31T07:33:02.220Z,6.30
2018-05-31T07:34:02.258Z,6.70
2018-05-31T07:35:02.297Z,5.60
2018-05-31T07:36:02.346Z,6.60
2018-05-31T07:37:02.373Z,6.30
2018-05-31T07:38:02.423Z,5.80
2018-05-31T07:39:02.450Z,6.80
2018-05-31T07:40:02.488Z,7.90
2018-05-31T07:41:02.527Z,6.10
2018-05-31T07:42:02.563Z,6.20
2018-05-31T07:43:02.604Z,5.70
2018-05-31T07:44:02.641Z,7.00
2018-05-31T07:45:02.682Z,5.60
2018-05-31T07:46:02.718Z,5.90
2018-05-31T07:47:02.757Z,6.70
2018-05-31T07:48:02.794Z,5.60
2018-05-31T07:49:02.833Z,6.60
2018-05-31T07:50:02.872Z,5.70
2018-05-31T07:51:02.910Z,5.80
2018-05-31T07:52:02.949Z,6.50
2018-05-31T07:53:02.988Z,6.20
2018-05-31T07:54:03.025Z,6.00
2018-05-31T07:55:03.064Z,5.90
2018-05-31T07:56:03.103Z,5.70
2018-05-31T07:57:03.140Z,6.80
2018-05-31T07:58:03.255Z,5.50
2018-05-31T07:59:03.230Z,5.70
2018-05-31T08:00:03.268Z,6.30
2018-05-31T08:01:03.310Z,5.80
2018-05-31T08:02:03.344Z,6.00
2018-05-31T08:03:03.384Z,5.50
2018-05-31T08:04:03.422Z,6.10
2018-05-31T08:05:03.460Z,6.10
2018-05-31T08:06:03.499Z,5.50
2018-05-31T08:07:03.537Z,6.20
2018-05-31T08:08:03.575Z,5.50
2018-05-31T08:09:03.615Z,6.80
2018-05-31T08:10:03.667Z,6.00
2018-05-31T08:11:03.703Z,5.90
2018-05-31T08:12:03.744Z,6.00
2018-05-31T08:13:03.780Z,6.00
2018-05-31T08:14:03.818Z,5.40
2018-05-31T08:15:03.859Z,5.90
2018-05-31T08:16:03.896Z,5.80
2018-05-31T08:17:03.946Z,5.70
2018-05-31T08:18:03.985Z,6.20
2018-05-31T08:19:04.023Z,6.40
2018-05-31T08:20:04.062Z,5.70
2018-05-31T08:21:04.100Z,5.30
2018-05-31T08:22:04.150Z,6.70
2018-05-31T08:23:04.190Z,7.00
2018-05-31T08:24:04.228Z,5.60
2018-05-31T08:25:04.266Z,5.30
2018-05-31T08:26:04.305Z,5.80
2018-05-31T08:27:04.357Z,6.20
2018-05-31T08:28:04.395Z,7.10
2018-05-31T08:29:04.445Z,5.10
2018-05-31T08:30:04.472Z,5.60
2018-05-31T08:31:04.510Z,5.70
2018-05-31T08:32:04.565Z,6.50
2018-05-31T08:33:04.599Z,6.60
2018-05-31T08:34:04.638Z,5.50
2018-05-31T08:35:04.676Z,5.40
2018-05-31T08:36:04.727Z,5.10
2018-05-31T08:37:04.780Z,5.40
2018-05-31T08:38:04.804Z,5.70
2018-05-31T08:39:04.842Z,5.70
2018-05-31T08:40:04.892Z,5.70
2018-05-31T08:41:04.932Z,6.70
2018-05-31T08:42:04.969Z,5.30
2018-05-31T08:43:05.009Z,6.20
2018-05-31T08:44:05.111Z,5.70
2018-05-31T08:45:05.097Z,5.30
2018-05-31T08:46:05.137Z,5.30
2018-05-31T08:47:05.188Z,5.40
2018-05-31T08:48:05.225Z,6.40
2018-05-31T08:49:05.265Z,5.80
2018-05-31T08:50:05.304Z,6.10
2018-05-31T08:51:05.383Z,6.00
2018-05-31T08:52:05.391Z,5.90
2018-05-31T08:53:05.434Z,5.50
2018-05-31T08:54:05.485Z,14.00
2018-05-31T08:55:05.519Z,5.80
2018-05-31T08:56:05.557Z,9.00
2018-05-31T08:57:05.622Z,7.20
2018-05-31T08:58:05.650Z,5.40
2018-05-31T08:59:05.686Z,5.90
2018-05-31T09:00:05.737Z,5.90
2018-05-31T09:01:05.775Z,6.10
2018-05-31T09:02:05.814Z,7.70
2018-05-31T09:03:05.868Z,6.70
2018-05-31T09:04:05.904Z,6.20
2018-05-31T09:05:05.954Z,6.90
2018-05-31T09:06:05.991Z,6.40
2018-05-31T09:07:06.031Z,6.20
2018-05-31T09:08:06.081Z,7.50
2018-05-31T09:09:06.124Z,6.20
2018-05-31T09:10:06.158Z,6.80
2018-05-31T09:11:06.210Z,6.30
2018-05-31T09:12:06.250Z,7.10
2018-05-31T09:13:06.287Z,6.50
2018-05-31T09:14:06.337Z,6.60
2018-05-31T09:15:06.387Z,7.20
2018-05-31T09:16:06.427Z,7.60
2018-05-31T09:17:06.466Z,6.40
2018-05-31T09:18:06.502Z,6.50
2018-05-31T09:19:06.555Z,7.50
2018-05-31T09:20:06.593Z,6.60
2018-05-31T09:21:06.645Z,10.10
2018-05-31T09:22:06.682Z,6.40
2018-05-31T09:23:06.721Z,6.50
2018-05-31T09:24:06.772Z,6.60
2018-05-31T09:25:06.809Z,8.00
2018-05-31T09:26:06.859Z,7.20
2018-05-31T09:27:06.899Z,6.60
2018-05-31T09:28:06.937Z,7.60
2018-05-31T09:29:06.988Z,6.50
2018-05-31T09:30:07.026Z,6.50
2018-05-31T09:31:07.079Z,6.60
2018-05-31T09:32:07.115Z,6.30
2018-05-31T09:33:07.166Z,6.60
2018-05-31T09:34:07.205Z,8.10
2018-05-31T09:35:07.273Z,6.40
2018-05-31T09:36:07.294Z,6.70
2018-05-31T09:37:07.333Z,7.20
2018-05-31T09:38:07.385Z,6.70
2018-05-31T09:39:07.422Z,8.40
2018-05-31T09:40:07.472Z,8.50
2018-05-31T09:41:07.539Z,7.40
2018-05-31T09:42:07.562Z,7.80
2018-05-31T09:43:07.600Z,6.80
2018-05-31T09:44:07.639Z,6.30
2018-05-31T09:45:07.694Z,6.00
2018-05-31T09:46:07.730Z,7.60
2018-05-31T09:47:07.778Z,6.60
2018-05-31T09:48:07.818Z,7.00
2018-05-31T09:49:07.868Z,8.00
2018-05-31T09:50:07.919Z,7.10
2018-05-31T09:51:07.968Z,6.60
2018-05-31T09:52:07.997Z,6.50
2018-05-31T09:53:08.047Z,6.80
2018-05-31T09:54:08.085Z,6.60
2018-05-31T09:55:08.137Z,6.40
2018-05-31T09:56:08.176Z,5.90
2018-05-31T09:57:08.232Z,6.20
2018-05-31T09:58:08.315Z,7.10
2018-05-31T10:00:08.355Z,6.30
2018-05-31T10:01:08.404Z,6.20
2018-05-31T10:02:08.443Z,6.30
2018-05-31T10:03:08.494Z,6.60
2018-05-31T10:04:08.532Z,6.50
2018-05-31T10:05:08.583Z,5.70
2018-05-31T10:06:08.621Z,8.60
2018-05-31T10:07:08.673Z,7.10
2018-05-31T10:08:08.914Z,5.80
2018-05-31T10:09:08.762Z,6.50
2018-05-31T10:10:08.799Z,7.80
2018-05-31T10:11:08.851Z,6.60
2018-05-31T10:12:08.898Z,6.50
2018-05-31T10:13:08.941Z,5.70
2018-05-31T10:15:09.032Z,6.20
2018-05-31T10:16:09.072Z,6.50
2018-05-31T10:17:09.157Z,6.60
2018-05-31T10:18:09.157Z,5.90
2018-05-31T10:19:09.208Z,6.90
2018-05-31T10:20:09.258Z,7.70
2018-05-31T10:21:09.298Z,8.10
2018-05-31T10:22:09.353Z,6.20
2018-05-31T10:23:09.387Z,6.50
2018-05-31T10:24:09.438Z,6.40
2018-05-31T10:25:09.480Z,6.30
2018-05-31T10:26:09.529Z,8.10
2018-05-31T10:27:09.565Z,6.40
2018-05-31T10:28:09.616Z,7.00
2018-05-31T10:29:09.661Z,7.10
2018-05-31T10:30:09.765Z,5.90
2018-05-31T10:31:09.757Z,7.60
2018-05-31T10:32:09.799Z,6.90
2018-05-31T10:33:09.846Z,7.70
2018-05-31T10:34:09.887Z,6.30
2018-05-31T10:35:09.936Z,9.00
2018-05-31T10:36:09.987Z,14.70
2018-05-31T10:37:10.025Z,6.90
2018-05-31T10:38:10.080Z,7.40
2018-05-31T10:40:10.166Z,7.40
2018-05-31T10:41:10.221Z,6.40
2018-05-31T10:42:10.255Z,5.60
2018-05-31T10:43:10.305Z,6.90
2018-05-31T10:45:10.396Z,9.50
2018-05-31T10:46:10.447Z,10.00
2018-05-31T10:47:10.486Z,8.00
2018-05-31T10:48:10.535Z,6.80
2018-05-31T10:49:10.586Z,7.50
2018-05-31T10:50:10.638Z,8.10
2018-05-31T10:52:10.727Z,11.50
2018-05-31T10:53:10.765Z,7.00
2018-05-31T10:54:10.818Z,6.50
2018-05-31T10:56:10.905Z,6.20
2018-05-31T10:57:10.960Z,9.60
2018-05-31T10:58:11.008Z,5.80
2018-05-31T10:59:11.055Z,7.50
2018-05-31T11:00:11.096Z,5.80
2018-05-31T11:01:11.148Z,6.10
2018-05-31T11:02:11.198Z,5.70
2018-05-31T11:03:11.238Z,5.80
2018-05-31T11:04:11.293Z,5.80
2018-05-31T11:05:11.339Z,5.80
2018-05-31T11:06:11.377Z,5.60
2018-05-31T11:07:11.431Z,6.30
2018-05-31T11:08:11.479Z,6.20
2018-05-31T11:09:11.743Z,5.70
2018-05-31T11:10:11.569Z,6.00
2018-05-31T11:11:11.627Z,5.80
2018-05-31T11:12:11.670Z,5.40
2018-05-31T11:13:11.721Z,6.30
2018-05-31T11:14:11.760Z,5.80
2018-05-31T11:15:11.811Z,5.90
2018-05-31T11:16:11.850Z,5.60
2018-05-31T11:17:11.908Z,5.50
2018-05-31T11:18:11.952Z,6.20
2018-05-31T11:19:12.203Z,5.90
2018-05-31T11:20:12.052Z,5.70
2018-05-31T11:21:12.091Z,6.00
2018-05-31T11:22:12.145Z,5.20
2018-05-31T11:23:12.180Z,5.40
2018-05-31T11:24:12.232Z,5.40
2018-05-31T11:25:12.284Z,5.20
2018-05-31T11:26:12.321Z,5.40
2018-05-31T11:27:12.372Z,5.40
2018-05-31T11:28:12.627Z,4.90
2018-05-31T11:29:12.494Z,4.70
2018-05-31T11:30:12.512Z,5.50
2018-05-31T11:31:12.565Z,5.50
2018-05-31T11:32:12.601Z,5.00
2018-05-31T11:33:12.652Z,4.80
2018-05-31T11:34:12.702Z,5.40
2018-05-31T11:35:12.741Z,4.90
2018-05-31T11:36:12.794Z,4.90
2018-05-31T11:37:12.832Z,5.10
2018-05-31T11:38:12.881Z,5.40
2018-05-31T11:39:12.932Z,5.60
2018-05-31T11:40:12.973Z,5.70
2018-05-31T11:41:13.026Z,6.40
2018-05-31T11:42:13.073Z,5.50
2018-05-31T11:43:13.112Z,5.40
2018-05-31T11:44:13.162Z,5.90
2018-05-31T11:45:13.209Z,5.50
2018-05-31T11:46:13.241Z,5.60
2018-05-31T11:47:13.292Z,5.70
2018-05-31T11:48:13.329Z,5.80
2018-05-31T11:49:13.380Z,6.10
2018-05-31T11:50:13.430Z,5.70
2018-05-31T11:51:13.468Z,6.30
2018-05-31T11:52:13.508Z,5.30
2018-05-31T11:53:13.548Z,5.10
2018-05-31T11:54:13.597Z,5.20
2018-05-31T11:55:13.638Z,5.70
2018-05-31T11:56:13.687Z,5.50
2018-05-31T11:57:13.726Z,5.90
2018-05-31T11:58:13.774Z,5.70
2018-05-31T11:59:13.814Z,5.30
2018-05-31T12:00:13.853Z,5.20
2018-05-31T12:01:13.902Z,4.90
2018-05-31T12:02:13.941Z,4.80
2018-05-31T12:03:13.993Z,5.00
2018-05-31T12:04:14.030Z,5.10
2018-05-31T12:05:14.081Z,4.50
2018-05-31T12:06:14.131Z,4.80
2018-05-31T12:07:14.171Z,4.80
2018-05-31T12:08:14.256Z,8.80
2018-05-31T12:09:14.261Z,5.80
2018-05-31T12:10:14.311Z,5.20
2018-05-31T12:11:14.351Z,5.80
2018-05-31T12:12:14.415Z,5.00
2018-05-31T12:13:14.440Z,5.30
2018-05-31T12:14:14.489Z,5.50
2018-05-31T12:15:14.540Z,6.60
2018-05-31T12:16:14.585Z,5.60
2018-05-31T12:17:14.630Z,6.30
2018-05-31T12:18:14.667Z,5.10
2018-05-31T12:19:14.722Z,4.70
2018-05-31T12:20:14.770Z,5.00
2018-05-31T12:21:14.810Z,5.00
2018-05-31T12:22:14.859Z,5.30
2018-05-31T12:23:14.900Z,4.80
2018-05-31T12:24:14.961Z,4.90
2018-05-31T12:25:15.000Z,5.10
2018-05-31T12:26:15.039Z,5.50
2018-05-31T12:27:15.090Z,5.30
2018-05-31T12:28:15.128Z,5.00
2018-05-31T12:29:15.193Z,5.50
2018-05-31T12:30:15.229Z,5.10
2018-05-31T12:31:15.268Z,5.60
2018-05-31T12:32:15.370Z,5.40
2018-05-31T12:33:15.369Z,5.10
2018-05-31T12:34:15.408Z,5.80
2018-05-31T12:35:15.458Z,4.90
2018-05-31T12:36:15.498Z,5.00
2018-05-31T12:37:15.549Z,5.00
2018-05-31T12:38:15.599Z,5.50
2018-05-31T12:39:15.650Z,5.40
2018-05-31T12:40:15.688Z,5.40
2018-05-31T12:41:15.728Z,5.40
2018-05-31T12:42:15.778Z,5.50
2018-05-31T12:43:15.828Z,5.70
2018-05-31T12:44:15.866Z,5.50
2018-05-31T12:45:15.918Z,5.80
2018-05-31T12:46:15.956Z,5.70
2018-05-31T12:47:16.008Z,5.40
2018-05-31T12:48:16.045Z,5.90
2018-05-31T12:49:16.084Z,6.30
2018-05-31T12:50:16.137Z,6.40
2018-05-31T12:51:16.172Z,5.50
2018-05-31T12:52:16.271Z,5.90
2018-05-31T12:53:16.268Z,6.00
2018-05-31T12:54:16.304Z,6.50
2018-05-31T12:55:16.352Z,5.90
2018-05-31T12:56:16.393Z,6.70
2018-05-31T12:57:16.429Z,6.40
2018-05-31T12:58:16.479Z,6.30
2018-05-31T12:59:16.523Z,6.70
2018-05-31T13:00:16.555Z,6.10
2018-05-31T13:01:16.608Z,6.30
2018-05-31T13:02:16.647Z,6.10
2018-05-31T13:03:16.683Z,6.20
2018-05-31T13:04:16.735Z,6.30
2018-05-31T13:05:16.777Z,6.40
2018-05-31T13:06:16.811Z,6.00
2018-05-31T13:07:16.862Z,6.60
2018-05-31T13:08:16.901Z,6.90
2018-05-31T13:09:16.939Z,6.50
2018-05-31T13:10:16.978Z,7.00
2018-05-31T13:11:17.030Z,6.20
2018-05-31T13:12:17.117Z,6.50
2018-05-31T13:13:17.106Z,6.10
2018-05-31T13:14:17.144Z,6.30
2018-05-31T13:15:17.196Z,8.00
2018-05-31T13:16:17.236Z,6.60
2018-05-31T13:17:17.271Z,8.30
2018-05-31T13:18:17.310Z,6.40
2018-05-31T13:19:17.348Z,7.20
2018-05-31T13:20:17.387Z,6.50